Ava, New York
Current Conditions -  °F | °C
As of 5:16 PM on Tuesday 21 Oct 2014 (Local Time) from KRME Reporting Station
Overcast Overcast  
Wind Chill: 52°   Ceiling: 4600
Heat Index: 52°   Visibility: 10mi
Dew Point: 48°   Wind: 6mph
Humidity: 86%   Direction: 100°E
Pressure: 29.92"   Gusts: NA
Location:  43.42°N, 75.48°W
Report Text: KRME 212116Z 10005KT 10SM SCT022 OVC046 11/09 A2992 RMK AO2 T01110089
Loading
Personal Weather Stations






























Interactive Weather Map
Tropical Storm Tracking
New forecast layout! Learn more

10-Day Weather Forecast

Advertisements
Track Severe Weather on mobile